createdAt,value
2022-10-21T00:00:00.848Z,13.33
2022-10-21T00:01:22.921Z,15.00
2022-10-21T00:02:45.484Z,16.10
2022-10-21T00:04:07.508Z,13.40
2022-10-21T00:05:29.742Z,14.13
2022-10-21T00:06:51.813Z,11.57
2022-10-21T00:08:14.225Z,11.17
2022-10-21T00:09:36.226Z,11.07
2022-10-21T00:11:01.618Z,12.60
2022-10-21T00:12:23.642Z,9.80
2022-10-21T00:13:45.667Z,11.60
2022-10-21T00:15:08.975Z,12.10
2022-10-21T00:16:31.012Z,10.00
2022-10-21T00:17:53.050Z,12.23
2022-10-21T00:19:15.157Z,11.83
2022-10-21T00:20:40.968Z,10.60
2022-10-21T00:22:03.031Z,11.13
2022-10-21T00:23:25.731Z,9.90
2022-10-21T00:24:47.778Z,10.33
2022-10-21T00:26:11.224Z,11.13
2022-10-21T00:27:33.372Z,10.73
2022-10-21T00:28:58.959Z,14.97
2022-10-21T00:30:20.981Z,12.40
2022-10-21T00:31:43.085Z,12.00
2022-10-21T00:33:05.101Z,13.70
2022-10-21T00:34:30.640Z,9.80
2022-10-21T00:36:03.087Z,13.43
2022-10-21T00:37:25.203Z,12.27
2022-10-21T00:38:48.638Z,14.00
2022-10-21T00:40:10.904Z,13.03
2022-10-21T00:41:32.953Z,10.90
2022-10-21T00:42:54.967Z,10.20
2022-10-21T00:44:17.073Z,12.57
2022-10-21T00:45:39.608Z,11.40
2022-10-21T00:47:09.398Z,11.70
2022-10-21T00:48:45.043Z,12.70
2022-10-21T00:50:24.658Z,9.73
2022-10-21T00:51:49.931Z,12.97
2022-10-21T00:53:15.763Z,11.30
2022-10-21T00:54:39.975Z,13.47
2022-10-21T00:56:14.161Z,12.80
2022-10-21T00:57:39.611Z,12.77
2022-10-21T00:59:03.867Z,16.10
2022-10-21T01:00:25.940Z,14.33
2022-10-21T01:01:49.469Z,13.73
2022-10-21T01:03:11.530Z,11.50
2022-10-21T01:04:33.814Z,11.93
2022-10-21T01:05:57.589Z,14.30
2022-10-21T01:07:19.899Z,13.00
2022-10-21T01:08:42.002Z,11.07
2022-10-21T01:10:04.842Z,13.40
2022-10-21T01:11:28.314Z,11.77
2022-10-21T01:13:11.386Z,11.67
2022-10-21T01:14:44.527Z,13.97
2022-10-21T01:16:30.949Z,11.13
2022-10-21T01:18:13.642Z,16.63
2022-10-21T01:20:11.706Z,11.17
2022-10-21T01:21:42.251Z,12.87
2022-10-21T01:23:21.224Z,11.33
2022-10-21T01:25:21.177Z,14.77
2022-10-21T01:27:11.536Z,14.43
2022-10-21T01:28:52.164Z,10.80
2022-10-21T01:30:17.050Z,14.87
2022-10-21T01:32:01.054Z,11.97
2022-10-21T01:33:42.542Z,12.23
2022-10-21T01:35:21.413Z,12.53
2022-10-21T01:37:02.961Z,15.37
2022-10-21T01:38:54.625Z,17.60
2022-10-21T01:40:26.752Z,15.13
2022-10-21T01:41:53.288Z,12.37
2022-10-21T01:43:46.628Z,18.60
2022-10-21T01:45:17.719Z,15.70
2022-10-21T01:46:45.629Z,17.47
2022-10-21T01:48:19.121Z,16.27
2022-10-21T01:49:54.863Z,10.23
2022-10-21T01:51:19.178Z,14.30
2022-10-21T01:52:44.413Z,15.43
2022-10-21T01:54:12.388Z,16.70
2022-10-21T01:55:35.451Z,15.53
2022-10-21T01:56:59.647Z,16.57
2022-10-21T01:58:25.885Z,14.17
2022-10-21T01:59:48.305Z,11.70
2022-10-21T02:01:13.500Z,20.93
2022-10-21T02:02:39.356Z,12.70
2022-10-21T02:04:04.521Z,14.23
2022-10-21T02:05:31.762Z,15.37
2022-10-21T02:06:53.914Z,18.67
2022-10-21T02:08:16.069Z,13.17
2022-10-21T02:09:38.097Z,18.07
2022-10-21T02:11:03.912Z,11.60
2022-10-21T02:12:28.679Z,11.03
2022-10-21T02:14:02.679Z,14.83
2022-10-21T02:15:27.271Z,18.50
2022-10-21T02:16:51.662Z,15.33
2022-10-21T02:18:23.224Z,13.70
2022-10-21T02:19:46.458Z,12.47
2022-10-21T02:21:19.074Z,19.53
2022-10-21T02:22:43.568Z,16.33
2022-10-21T02:24:15.493Z,12.97
2022-10-21T02:25:40.532Z,14.00
2022-10-21T02:27:02.909Z,17.50
2022-10-21T02:28:25.025Z,18.03
2022-10-21T02:29:51.693Z,17.43
2022-10-21T02:31:23.888Z,14.80
2022-10-21T02:33:11.354Z,11.47
2022-10-21T02:34:48.053Z,18.87
2022-10-21T02:36:26.043Z,13.13
2022-10-21T02:37:50.893Z,15.30
2022-10-21T02:39:27.431Z,14.47
2022-10-21T02:40:56.119Z,17.97
2022-10-21T02:42:23.605Z,11.10
2022-10-21T02:43:57.934Z,15.90
2022-10-21T02:45:21.495Z,27.17
2022-10-21T02:46:46.583Z,12.70
2022-10-21T02:48:08.566Z,12.50
2022-10-21T02:49:30.608Z,16.70
2022-10-21T02:50:52.688Z,15.10
2022-10-21T02:52:14.710Z,16.00
2022-10-21T02:53:37.371Z,12.03
2022-10-21T02:54:59.473Z,18.70
2022-10-21T02:56:21.555Z,15.90
2022-10-21T02:57:43.660Z,13.33
2022-10-21T02:59:05.773Z,13.63
2022-10-21T03:00:32.034Z,14.77
2022-10-21T03:01:55.052Z,18.40
2022-10-21T03:03:17.165Z,16.23
2022-10-21T03:04:39.135Z,16.30
2022-10-21T03:06:01.147Z,18.97
2022-10-21T03:07:23.176Z,14.27
2022-10-21T03:08:45.234Z,20.27
2022-10-21T03:10:07.747Z,12.63
2022-10-21T03:11:29.756Z,16.43
2022-10-21T03:12:51.760Z,12.77
2022-10-21T03:14:13.819Z,15.00
2022-10-21T03:15:35.884Z,12.43
2022-10-21T03:16:57.888Z,14.50
2022-10-21T03:18:19.878Z,17.50
2022-10-21T03:19:41.902Z,15.80
2022-10-21T03:21:04.072Z,16.70
2022-10-21T03:22:26.161Z,13.73
2022-10-21T03:23:48.150Z,15.53
2022-10-21T03:25:10.954Z,19.07
2022-10-21T03:26:33.022Z,16.27
2022-10-21T03:27:55.045Z,14.23
2022-10-21T03:29:17.048Z,16.23
2022-10-21T03:30:39.225Z,16.90
2022-10-21T03:32:01.636Z,14.43
2022-10-21T03:33:23.706Z,18.70
2022-10-21T03:34:45.688Z,18.60
2022-10-21T03:36:07.828Z,16.17
2022-10-21T03:37:29.884Z,16.83
2022-10-21T03:38:51.972Z,15.50
2022-10-21T03:40:13.986Z,17.20
2022-10-21T03:41:35.984Z,18.00
2022-10-21T03:42:59.062Z,18.00
2022-10-21T03:44:21.512Z,17.20
2022-10-21T03:45:43.478Z,19.80
2022-10-21T03:47:05.514Z,15.60
2022-10-21T03:48:27.588Z,18.50
2022-10-21T03:49:49.625Z,18.00
2022-10-21T03:51:11.664Z,17.53
2022-10-21T03:52:34.224Z,15.00
2022-10-21T03:53:56.216Z,18.07
2022-10-21T03:55:20.808Z,16.10
2022-10-21T03:56:42.897Z,18.30
2022-10-21T03:58:05.106Z,15.97
2022-10-21T03:59:27.253Z,17.37
2022-10-21T04:00:53.471Z,22.07
2022-10-21T04:02:15.588Z,15.50
2022-10-21T04:03:37.640Z,17.03
2022-10-21T04:04:59.670Z,18.03
2022-10-21T04:06:21.702Z,18.63
2022-10-21T04:07:43.742Z,17.83
2022-10-21T04:09:05.936Z,17.33
2022-10-21T04:10:28.062Z,21.00
2022-10-21T04:11:50.099Z,18.73
2022-10-21T04:13:12.152Z,17.20
2022-10-21T04:14:34.274Z,20.30
2022-10-21T04:16:05.403Z,18.90
2022-10-21T04:17:27.520Z,16.83
2022-10-21T04:18:49.953Z,18.40
2022-10-21T04:20:12.456Z,19.17
2022-10-21T04:21:34.413Z,20.57
2022-10-21T04:22:56.430Z,18.60
2022-10-21T04:24:18.505Z,15.93
2022-10-21T04:25:43.335Z,21.07
2022-10-21T04:27:05.475Z,20.17
2022-10-21T04:28:27.558Z,18.03
2022-10-21T04:29:49.629Z,18.87
2022-10-21T04:31:12.269Z,18.33
2022-10-21T04:32:34.323Z,17.23
2022-10-21T04:33:56.403Z,16.73
2022-10-21T04:35:18.506Z,22.60
2022-10-21T04:36:40.574Z,18.80
2022-10-21T04:38:02.609Z,17.07
2022-10-21T04:39:24.677Z,15.97
2022-10-21T04:40:46.767Z,20.47
2022-10-21T04:42:08.827Z,17.90
2022-10-21T04:43:31.225Z,17.13
2022-10-21T04:44:53.305Z,20.80
2022-10-21T04:46:20.177Z,20.00
2022-10-21T04:47:42.496Z,20.60
2022-10-21T04:49:04.561Z,19.00
2022-10-21T04:50:26.637Z,17.73
2022-10-21T04:51:48.705Z,21.53
2022-10-21T04:53:10.906Z,17.77
2022-10-21T04:54:32.987Z,19.97
2022-10-21T04:55:55.061Z,19.30
2022-10-21T04:57:17.101Z,22.43
2022-10-21T04:58:39.157Z,24.83
2022-10-21T05:00:01.299Z,22.60
2022-10-21T05:01:23.399Z,21.67
2022-10-21T05:02:45.544Z,16.13
2022-10-21T05:04:07.635Z,24.77
2022-10-21T05:05:29.662Z,23.50
2022-10-21T05:06:51.933Z,22.73
2022-10-21T05:08:14.075Z,20.43
2022-10-21T05:09:36.262Z,22.20
2022-10-21T05:11:00.292Z,22.90
2022-10-21T05:12:22.408Z,25.77
2022-10-21T05:13:45.933Z,23.13
2022-10-21T05:15:08.413Z,23.43
2022-10-21T05:16:30.425Z,19.57
2022-10-21T05:17:53.450Z,20.33
2022-10-21T05:19:15.477Z,17.47
2022-10-21T05:20:37.511Z,22.13
2022-10-21T05:21:59.771Z,22.33
2022-10-21T05:23:22.501Z,23.43
2022-10-21T05:24:44.532Z,20.20
2022-10-21T05:26:06.585Z,24.30
2022-10-21T05:27:28.639Z,19.90
2022-10-21T05:28:50.692Z,21.10
2022-10-21T05:30:13.642Z,27.10
2022-10-21T05:31:35.793Z,23.00
2022-10-21T05:32:57.815Z,19.80
2022-10-21T05:34:19.907Z,25.90
2022-10-21T05:35:42.171Z,22.63
2022-10-21T05:37:04.299Z,20.07
2022-10-21T05:38:26.663Z,25.13
2022-10-21T05:39:48.695Z,24.33
2022-10-21T05:41:13.989Z,22.13
2022-10-21T05:42:36.296Z,22.73
2022-10-21T05:43:58.553Z,22.30
2022-10-21T05:45:21.113Z,26.67
2022-10-21T05:46:43.177Z,19.63
2022-10-21T05:48:05.472Z,23.63
2022-10-21T05:49:27.499Z,23.73
2022-10-21T05:50:52.596Z,21.93
2022-10-21T05:52:14.610Z,21.40
2022-10-21T05:53:36.997Z,20.77
2022-10-21T05:54:59.049Z,21.20
2022-10-21T05:56:21.124Z,23.07
2022-10-21T05:57:43.220Z,17.33
2022-10-21T05:59:07.897Z,20.00
2022-10-21T06:00:32.214Z,20.53
2022-10-21T06:01:54.279Z,19.50
2022-10-21T06:03:16.334Z,22.33
2022-10-21T06:04:39.014Z,19.03
2022-10-21T06:06:05.171Z,26.43
2022-10-21T06:07:27.254Z,22.77
2022-10-21T06:08:49.330Z,20.20
2022-10-21T06:10:12.236Z,31.27
2022-10-21T06:11:34.255Z,20.80
2022-10-21T06:12:56.375Z,23.47
2022-10-21T06:14:19.923Z,24.13
2022-10-21T06:15:41.983Z,22.57
2022-10-21T06:17:05.048Z,19.70
2022-10-21T06:18:27.813Z,22.93
2022-10-21T06:19:51.026Z,23.13
2022-10-21T06:21:13.572Z,18.33
2022-10-21T06:22:35.658Z,20.70
2022-10-21T06:23:57.720Z,20.30
2022-10-21T06:25:21.239Z,19.10
2022-10-21T06:26:43.430Z,21.60
2022-10-21T06:28:05.570Z,22.90
2022-10-21T06:29:27.670Z,17.00
2022-10-21T06:30:49.819Z,19.53
2022-10-21T06:32:12.292Z,22.17
2022-10-21T06:33:35.218Z,16.50
2022-10-21T06:34:57.244Z,22.17
2022-10-21T06:36:19.285Z,22.47
2022-10-21T06:37:41.461Z,19.30
2022-10-21T06:39:08.122Z,19.93
2022-10-21T06:40:30.112Z,19.23
2022-10-21T06:41:52.196Z,20.13
2022-10-21T06:43:14.557Z,18.33
2022-10-21T06:44:36.612Z,21.73
2022-10-21T06:46:07.253Z,19.30
2022-10-21T06:48:32.598Z,19.57
2022-10-21T06:49:54.711Z,18.47
2022-10-21T06:51:20.398Z,21.27
2022-10-21T06:52:42.377Z,19.07
2022-10-21T06:54:04.438Z,21.70
2022-10-21T06:55:26.574Z,28.10
2022-10-21T06:56:48.572Z,23.30
2022-10-21T06:58:10.620Z,21.83
2022-10-21T06:59:32.783Z,14.83
2022-10-21T07:00:54.794Z,20.90
2022-10-21T07:02:16.778Z,23.13
2022-10-21T07:03:38.793Z,17.17
2022-10-21T07:05:00.866Z,21.90
2022-10-21T07:06:22.960Z,19.07
2022-10-21T07:07:45.182Z,14.97
2022-10-21T07:09:08.952Z,17.10
2022-10-21T07:10:31.040Z,16.83
2022-10-21T07:11:53.014Z,15.40
2022-10-21T07:13:15.363Z,18.07
2022-10-21T07:14:37.742Z,20.20
2022-10-21T07:16:03.318Z,18.60
2022-10-21T07:17:25.411Z,18.90
2022-10-21T07:18:47.685Z,16.50
2022-10-21T07:20:09.907Z,16.43
2022-10-21T07:21:32.874Z,18.93
2022-10-21T07:22:54.875Z,21.33
2022-10-21T07:24:22.141Z,17.10
2022-10-21T07:25:44.850Z,18.33
2022-10-21T07:27:07.312Z,24.27
2022-10-21T07:28:29.343Z,18.60
2022-10-21T07:29:51.327Z,19.67
2022-10-21T07:31:17.943Z,19.30
2022-10-21T07:32:39.993Z,16.87
2022-10-21T07:35:29.725Z,17.23
2022-10-21T07:36:52.994Z,22.80
2022-10-21T07:38:15.064Z,19.10
2022-10-21T07:39:37.088Z,20.03
2022-10-21T07:40:59.448Z,16.90
2022-10-21T07:42:21.556Z,17.87
2022-10-21T07:43:43.640Z,16.70
2022-10-21T07:45:06.009Z,17.57
2022-10-21T07:46:28.130Z,20.23
2022-10-21T07:47:50.213Z,18.20
2022-10-21T07:49:13.564Z,17.10
2022-10-21T07:50:36.843Z,16.90
2022-10-21T07:51:58.855Z,20.57
2022-10-21T07:53:25.832Z,16.87
2022-10-21T07:54:47.834Z,14.33
2022-10-21T07:56:16.990Z,22.50
2022-10-21T07:57:40.093Z,15.80
2022-10-21T07:59:02.948Z,20.33
2022-10-21T08:00:25.385Z,16.97
2022-10-21T08:03:12.740Z,16.90
2022-10-21T08:04:34.814Z,13.50
2022-10-21T08:05:57.507Z,15.63
2022-10-21T08:07:19.488Z,13.40
2022-10-21T08:08:41.749Z,16.20
2022-10-21T08:10:05.261Z,17.77
2022-10-21T08:11:30.062Z,15.93
2022-10-21T08:12:52.066Z,14.53
2022-10-21T08:14:14.657Z,15.30
2022-10-21T08:15:36.648Z,18.00
2022-10-21T08:16:58.745Z,14.60
2022-10-21T08:18:21.680Z,18.30
2022-10-21T08:19:43.906Z,15.73
2022-10-21T08:21:06.130Z,22.30
2022-10-21T08:22:28.121Z,18.83
2022-10-21T08:23:50.107Z,16.23
2022-10-21T08:25:16.599Z,17.80
2022-10-21T08:26:38.616Z,15.57
2022-10-21T08:28:00.898Z,16.70
2022-10-21T08:29:22.948Z,13.63
2022-10-21T08:30:45.250Z,20.40
2022-10-21T08:32:07.325Z,18.03
2022-10-21T08:33:29.870Z,17.33
2022-10-21T08:34:51.953Z,17.47
2022-10-21T08:36:20.204Z,18.07
2022-10-21T08:37:42.422Z,16.43
2022-10-21T08:39:05.347Z,18.07
2022-10-21T08:40:31.610Z,13.53
2022-10-21T08:41:53.593Z,14.80
2022-10-21T08:43:28.397Z,16.80
2022-10-21T08:44:59.362Z,14.60
2022-10-21T08:46:27.146Z,15.90
2022-10-21T08:47:55.129Z,17.00
2022-10-21T08:49:34.245Z,14.73
2022-10-21T08:50:57.677Z,14.77
2022-10-21T08:52:25.441Z,18.20
2022-10-21T08:53:50.991Z,18.43
2022-10-21T08:55:35.255Z,17.67
2022-10-21T08:57:00.383Z,15.53
2022-10-21T08:58:24.739Z,13.47
2022-10-21T08:59:47.051Z,14.07
2022-10-21T09:01:47.079Z,16.53
2022-10-21T09:03:32.425Z,19.13
2022-10-21T09:05:10.795Z,20.50
2022-10-21T09:06:38.930Z,17.50
2022-10-21T09:08:35.208Z,30.83
2022-10-21T09:10:01.547Z,21.70
2022-10-21T09:11:38.610Z,21.20
2022-10-21T09:13:20.515Z,16.80
2022-10-21T09:15:07.270Z,16.37
2022-10-21T09:16:54.120Z,16.60
2022-10-21T09:18:48.033Z,18.10
2022-10-21T09:20:27.391Z,16.40
2022-10-21T09:22:33.739Z,18.30
2022-10-21T09:23:58.442Z,16.60
2022-10-21T09:25:28.958Z,23.30
2022-10-21T09:26:53.013Z,17.13
2022-10-21T09:28:16.188Z,18.17
2022-10-21T09:29:42.554Z,16.33
2022-10-21T09:31:15.915Z,17.30
2022-10-21T09:32:41.608Z,18.50
2022-10-21T09:34:15.233Z,15.80
2022-10-21T09:35:44.488Z,19.00
2022-10-21T09:37:14.591Z,17.13
2022-10-21T09:38:45.257Z,19.83
2022-10-21T09:40:15.359Z,15.97
2022-10-21T09:41:44.528Z,16.10
2022-10-21T09:43:15.780Z,17.20
2022-10-21T09:44:38.294Z,16.87
2022-10-21T09:46:00.333Z,17.30
2022-10-21T09:47:24.669Z,15.70
2022-10-21T09:49:29.274Z,15.83
2022-10-21T09:50:39.840Z,15.03
2022-10-21T09:52:04.633Z,14.67
2022-10-21T09:53:58.691Z,17.47
2022-10-21T09:55:21.225Z,16.03
2022-10-21T09:56:58.809Z,16.10
2022-10-21T09:58:24.749Z,17.93
2022-10-21T10:00:00.055Z,19.40
2022-10-21T10:01:23.095Z,17.87
2022-10-21T10:02:46.453Z,20.80
2022-10-21T10:04:25.969Z,14.80
2022-10-21T10:05:48.146Z,20.07
2022-10-21T10:07:25.487Z,16.10
2022-10-21T10:08:47.719Z,15.90
2022-10-21T10:10:30.212Z,16.73
2022-10-21T10:11:56.893Z,18.37
2022-10-21T10:13:23.207Z,15.63
2022-10-21T10:14:46.816Z,18.30
2022-10-21T10:16:30.998Z,16.10
2022-10-21T10:17:57.216Z,14.33
2022-10-21T10:19:27.144Z,19.10
2022-10-21T10:21:06.436Z,23.63
2022-10-21T10:22:28.554Z,13.70
2022-10-21T10:23:53.153Z,16.37
2022-10-21T10:25:15.101Z,19.37
2022-10-21T10:26:38.388Z,14.27
2022-10-21T10:28:09.356Z,16.33
2022-10-21T10:29:33.850Z,20.43
2022-10-21T10:30:57.488Z,21.63
2022-10-21T10:32:22.972Z,19.73
2022-10-21T10:33:58.789Z,14.60
2022-10-21T10:35:31.037Z,16.17
2022-10-21T10:37:26.546Z,19.60
2022-10-21T10:38:57.248Z,15.33
2022-10-21T10:40:26.114Z,17.83
2022-10-21T10:41:51.914Z,18.77
2022-10-21T10:43:30.217Z,15.33
2022-10-21T10:44:56.696Z,17.27
2022-10-21T10:46:24.934Z,12.13
2022-10-21T10:47:53.610Z,12.20
2022-10-21T10:49:15.857Z,15.17
2022-10-21T10:50:37.856Z,15.60
2022-10-21T10:52:11.772Z,15.27
2022-10-21T10:53:36.231Z,18.80
2022-10-21T10:55:17.843Z,15.20
2022-10-21T10:56:46.338Z,13.23
2022-10-21T10:58:12.680Z,13.63
2022-10-21T10:59:52.538Z,14.00
2022-10-21T11:01:27.105Z,13.40
2022-10-21T11:02:59.175Z,19.07
2022-10-21T11:04:34.034Z,14.33
2022-10-21T11:06:06.968Z,16.67
2022-10-21T11:07:34.185Z,15.83
2022-10-21T11:08:57.652Z,13.77
2022-10-21T11:10:33.778Z,12.97
2022-10-21T11:11:56.403Z,14.07
2022-10-21T11:13:21.570Z,13.80
2022-10-21T11:14:47.201Z,18.43
2022-10-21T11:16:15.564Z,15.90
2022-10-21T11:17:41.207Z,16.80
2022-10-21T11:19:19.225Z,16.40
2022-10-21T11:20:54.471Z,16.50
2022-10-21T11:22:36.318Z,16.30
2022-10-21T11:24:16.467Z,12.20
2022-10-21T11:25:48.758Z,12.90
2022-10-21T11:27:22.738Z,14.60
2022-10-21T11:28:50.761Z,24.97
2022-10-21T11:30:29.685Z,13.97
2022-10-21T11:32:11.440Z,16.00
2022-10-21T11:33:43.275Z,13.87
2022-10-21T11:35:34.413Z,18.00
2022-10-21T11:37:10.485Z,13.77
2022-10-21T11:39:03.291Z,17.73
2022-10-21T11:40:25.303Z,16.20
2022-10-21T11:42:07.022Z,12.00
2022-10-21T11:43:37.552Z,14.50
2022-10-21T11:45:18.488Z,16.13
2022-10-21T11:46:51.270Z,15.20
2022-10-21T11:48:31.610Z,19.63
2022-10-21T11:51:53.447Z,13.97
2022-10-21T11:53:36.705Z,14.40
2022-10-21T11:55:11.092Z,18.23
2022-10-21T11:56:58.299Z,16.47
2022-10-21T11:58:29.344Z,14.23
2022-10-21T11:59:59.377Z,15.00
2022-10-21T12:01:39.447Z,16.13
2022-10-21T12:03:23.132Z,15.13
2022-10-21T12:05:07.299Z,15.77
2022-10-21T12:07:11.234Z,15.57
2022-10-21T12:08:47.165Z,16.97
2022-10-21T12:10:21.331Z,16.20
2022-10-21T12:11:50.432Z,14.97
2022-10-21T12:13:18.307Z,17.40
2022-10-21T12:14:54.566Z,15.60
2022-10-21T12:16:20.237Z,19.30
2022-10-21T12:17:42.776Z,17.60
2022-10-21T12:19:10.504Z,16.10
2022-10-21T12:20:33.472Z,16.87
2022-10-21T12:21:55.753Z,12.97
2022-10-21T12:23:26.798Z,15.03
2022-10-21T12:25:23.035Z,13.27
2022-10-21T12:27:06.919Z,19.20
2022-10-21T12:28:37.600Z,16.83
2022-10-21T12:30:23.568Z,15.13
2022-10-21T12:32:13.771Z,14.43
2022-10-21T12:33:44.625Z,18.60
2022-10-21T12:35:15.340Z,14.60
2022-10-21T12:36:42.251Z,16.63
2022-10-21T12:38:06.267Z,14.90
2022-10-21T12:39:34.591Z,14.13
2022-10-21T12:41:24.322Z,21.27
2022-10-21T12:42:48.328Z,12.10
2022-10-21T12:44:27.383Z,15.20
2022-10-21T12:46:03.730Z,14.50
2022-10-21T12:47:34.793Z,16.30
2022-10-21T12:48:58.883Z,17.37
2022-10-21T12:50:29.748Z,20.60
2022-10-21T12:51:57.640Z,16.63
2022-10-21T12:53:37.799Z,15.57
2022-10-21T12:55:03.565Z,18.50
2022-10-21T12:56:49.641Z,21.17
2022-10-21T12:58:33.334Z,16.73
2022-10-21T13:00:36.441Z,19.57
2022-10-21T13:02:10.200Z,14.77
2022-10-21T13:03:52.294Z,13.77
2022-10-21T13:05:37.315Z,13.57
2022-10-21T13:07:03.617Z,17.60
2022-10-21T13:08:29.693Z,15.97
2022-10-21T13:09:51.801Z,17.10
2022-10-21T13:11:20.546Z,14.17
2022-10-21T13:12:42.639Z,18.87
2022-10-21T13:14:16.953Z,13.80
2022-10-21T13:15:45.891Z,14.07
2022-10-21T13:17:22.857Z,15.73
2022-10-21T13:18:51.066Z,18.00
2022-10-21T13:20:16.260Z,12.20
2022-10-21T13:21:48.751Z,18.80
2022-10-21T13:23:31.996Z,16.50
2022-10-21T13:24:54.178Z,19.50
2022-10-21T13:26:21.477Z,16.17
2022-10-21T13:28:03.039Z,16.47
2022-10-21T13:29:30.834Z,19.20
2022-10-21T13:30:52.825Z,16.03
2022-10-21T13:32:14.834Z,19.23
2022-10-21T13:33:39.117Z,17.07
2022-10-21T13:35:21.353Z,16.43
2022-10-21T13:36:43.961Z,16.87
2022-10-21T13:38:29.330Z,16.63
2022-10-21T13:39:52.883Z,14.93
2022-10-21T13:41:27.806Z,15.53
2022-10-21T13:42:58.911Z,16.03
2022-10-21T13:44:35.396Z,20.47
2022-10-21T13:46:18.081Z,15.47
2022-10-21T13:47:40.476Z,20.80
2022-10-21T13:49:03.747Z,20.30
2022-10-21T13:50:28.411Z,15.90
2022-10-21T13:51:52.968Z,18.20
2022-10-21T13:53:17.779Z,15.03
2022-10-21T13:54:39.968Z,13.87
2022-10-21T13:56:04.945Z,14.13
2022-10-21T13:57:35.833Z,17.10
2022-10-21T13:58:58.338Z,14.20
2022-10-21T14:00:29.987Z,12.47
2022-10-21T14:01:54.634Z,17.03
2022-10-21T14:03:18.640Z,16.73
2022-10-21T14:04:40.854Z,12.27
2022-10-21T14:06:05.329Z,16.67
2022-10-21T14:07:28.767Z,14.80
2022-10-21T14:08:50.929Z,15.30
2022-10-21T14:10:15.518Z,13.60
2022-10-21T14:11:45.734Z,17.17
2022-10-21T14:13:08.391Z,18.23
2022-10-21T14:14:33.377Z,22.77
2022-10-21T14:15:56.082Z,17.57
2022-10-21T14:17:21.147Z,17.23
2022-10-21T14:18:46.541Z,16.50
2022-10-21T14:20:16.060Z,17.30
2022-10-21T14:21:42.602Z,14.00
2022-10-21T14:23:08.492Z,15.70
2022-10-21T14:24:46.591Z,17.07
2022-10-21T14:26:09.381Z,19.23
2022-10-21T14:27:34.829Z,16.60
2022-10-21T14:28:59.675Z,15.30
2022-10-21T14:30:24.735Z,18.33
2022-10-21T14:31:47.049Z,18.63
2022-10-21T14:33:15.328Z,18.10
2022-10-21T14:35:01.279Z,13.57
2022-10-21T14:36:27.694Z,14.23
2022-10-21T14:37:52.131Z,13.13
2022-10-21T14:39:20.946Z,14.60
2022-10-21T14:40:43.089Z,14.30
2022-10-21T14:42:12.197Z,15.00
2022-10-21T14:43:39.495Z,16.83
2022-10-21T14:45:04.036Z,18.80
2022-10-21T14:46:26.127Z,14.77
2022-10-21T14:47:53.222Z,17.73
2022-10-21T14:49:28.512Z,15.63
2022-10-21T14:50:59.798Z,16.13
2022-10-21T14:52:42.870Z,18.60
2022-10-21T14:54:07.332Z,21.03
2022-10-21T14:55:29.975Z,17.87
2022-10-21T14:56:52.561Z,16.67
2022-10-21T14:58:23.206Z,21.73
2022-10-21T14:59:50.216Z,15.63
2022-10-21T15:01:18.091Z,18.30
2022-10-21T15:02:41.058Z,17.90
2022-10-21T15:04:03.568Z,21.57
2022-10-21T15:05:34.717Z,18.13
2022-10-21T15:07:01.770Z,15.93
2022-10-21T15:08:29.376Z,20.50
2022-10-21T15:10:03.863Z,17.50
2022-10-21T15:11:26.054Z,20.17
2022-10-21T15:12:51.353Z,23.10
2022-10-21T15:14:13.397Z,17.37
2022-10-21T15:15:40.808Z,15.30
2022-10-21T15:17:09.174Z,14.80
2022-10-21T15:18:45.517Z,17.57
2022-10-21T15:20:16.331Z,25.57
2022-10-21T15:21:48.203Z,16.30
2022-10-21T15:23:20.041Z,18.67
2022-10-21T15:24:45.484Z,17.63
2022-10-21T15:26:31.678Z,22.03
2022-10-21T15:27:55.128Z,18.67
2022-10-21T15:29:33.817Z,24.33
2022-10-21T15:30:56.548Z,16.43
2022-10-21T15:32:25.569Z,19.10
2022-10-21T15:33:54.214Z,19.70
2022-10-21T15:35:22.055Z,19.10
2022-10-21T15:36:44.251Z,18.00
2022-10-21T15:38:06.494Z,19.87
2022-10-21T15:39:29.392Z,16.70
2022-10-21T15:40:51.542Z,16.30
2022-10-21T15:42:16.251Z,20.07
2022-10-21T15:43:38.427Z,22.80
2022-10-21T15:45:02.108Z,19.60
2022-10-21T15:46:26.106Z,22.27
2022-10-21T15:47:52.963Z,16.83
2022-10-21T15:49:20.603Z,18.50
2022-10-21T15:50:44.259Z,18.67
2022-10-21T15:52:06.385Z,19.13
2022-10-21T15:53:28.636Z,22.33
2022-10-21T15:54:50.963Z,23.20
2022-10-21T15:56:17.531Z,23.53
2022-10-21T15:57:40.408Z,22.60
2022-10-21T15:59:02.982Z,19.43
2022-10-21T16:00:25.173Z,18.27
2022-10-21T16:01:48.738Z,17.37
2022-10-21T16:03:11.015Z,22.27
2022-10-21T16:04:33.118Z,19.87
2022-10-21T16:05:55.308Z,18.27
2022-10-21T16:07:19.655Z,18.20
2022-10-21T16:08:42.139Z,20.97
2022-10-21T16:10:22.904Z,17.27
2022-10-21T16:11:54.726Z,19.70
2022-10-21T16:13:20.619Z,17.83
2022-10-21T16:14:42.797Z,19.53
2022-10-21T16:16:11.588Z,18.60
2022-10-21T16:17:33.646Z,17.93
2022-10-21T16:18:55.952Z,17.20
2022-10-21T16:20:21.303Z,18.33
2022-10-21T16:21:43.978Z,22.80
2022-10-21T16:23:06.155Z,19.57
2022-10-21T16:24:28.351Z,19.93
2022-10-21T16:25:50.619Z,18.93
2022-10-21T16:27:13.381Z,16.83
2022-10-21T16:28:35.434Z,16.20
2022-10-21T16:29:57.691Z,20.50
2022-10-21T16:31:20.164Z,18.03
2022-10-21T16:32:42.440Z,17.30
2022-10-21T16:34:04.587Z,21.73
2022-10-21T16:35:26.968Z,23.33
2022-10-21T16:36:49.079Z,22.77
2022-10-21T16:38:11.249Z,20.43
2022-10-21T16:39:33.457Z,20.10
2022-10-21T16:40:55.659Z,20.60
2022-10-21T16:42:17.737Z,22.97
2022-10-21T16:43:40.149Z,20.93
2022-10-21T16:45:02.345Z,19.93
2022-10-21T16:46:27.777Z,21.87
2022-10-21T16:47:53.922Z,21.37
2022-10-21T16:49:21.096Z,23.40
2022-10-21T16:50:46.807Z,23.13
2022-10-21T16:52:12.253Z,23.50
2022-10-21T16:53:34.432Z,18.33
2022-10-21T16:54:56.452Z,23.40
2022-10-21T16:56:18.606Z,25.07
2022-10-21T16:57:41.224Z,22.80
2022-10-21T16:59:03.907Z,20.03
2022-10-21T17:00:26.033Z,24.53
2022-10-21T17:01:48.065Z,25.40
2022-10-21T17:03:12.051Z,20.33
2022-10-21T17:04:34.121Z,21.87
2022-10-21T17:05:56.292Z,19.60
2022-10-21T17:07:18.674Z,21.67
2022-10-21T17:08:40.898Z,22.23
2022-10-21T17:10:03.642Z,19.93
2022-10-21T17:11:34.282Z,21.00
2022-10-21T17:12:59.373Z,20.30
2022-10-21T17:14:21.702Z,20.17
2022-10-21T17:15:43.976Z,23.90
2022-10-21T17:17:06.311Z,21.50
2022-10-21T17:18:28.648Z,20.77
2022-10-21T17:19:50.835Z,22.80
2022-10-21T17:21:22.149Z,23.30
2022-10-21T17:22:44.235Z,21.50
2022-10-21T17:24:06.724Z,23.70
2022-10-21T17:25:30.202Z,20.23
2022-10-21T17:26:52.267Z,21.70
2022-10-21T17:28:14.415Z,21.57
2022-10-21T17:29:36.778Z,22.83
2022-10-21T17:30:58.943Z,19.37
2022-10-21T17:32:21.081Z,28.57
2022-10-21T17:33:44.407Z,20.03
2022-10-21T17:35:06.943Z,19.20
2022-10-21T17:36:29.038Z,20.20
2022-10-21T17:37:52.520Z,23.60
2022-10-21T17:39:14.626Z,24.80
2022-10-21T17:40:36.954Z,20.10
2022-10-21T17:41:59.188Z,26.07
2022-10-21T17:43:21.377Z,20.50
2022-10-21T17:44:44.923Z,19.10
2022-10-21T17:46:07.168Z,23.27
2022-10-21T17:47:29.320Z,23.70
2022-10-21T17:48:56.050Z,24.23
2022-10-21T17:50:23.551Z,20.00
2022-10-21T17:51:45.835Z,22.70
2022-10-21T17:53:08.541Z,22.90
2022-10-21T17:54:31.732Z,21.73
2022-10-21T17:56:01.280Z,19.47
2022-10-21T17:57:23.692Z,19.93
2022-10-21T17:58:49.704Z,25.20
2022-10-21T18:00:12.413Z,20.43
2022-10-21T18:01:34.689Z,21.73
2022-10-21T18:02:56.985Z,25.20
2022-10-21T18:04:19.664Z,22.23
2022-10-21T18:05:42.198Z,22.93
2022-10-21T18:07:08.538Z,20.30
2022-10-21T18:08:32.319Z,21.73
2022-10-21T18:09:54.734Z,24.57
2022-10-21T18:11:20.480Z,19.17
2022-10-21T18:12:42.720Z,20.67
2022-10-21T18:14:05.113Z,19.80
2022-10-21T18:15:28.365Z,23.00
2022-10-21T18:16:50.583Z,18.83
2022-10-21T18:18:12.917Z,21.47
2022-10-21T18:19:35.095Z,20.13
2022-10-21T18:21:06.176Z,22.40
2022-10-21T18:22:28.283Z,23.03
2022-10-21T18:23:53.455Z,23.50
2022-10-21T18:25:15.609Z,22.23
2022-10-21T18:26:37.777Z,25.80
2022-10-21T18:27:59.858Z,27.70
2022-10-21T18:29:22.313Z,27.40
2022-10-21T18:30:44.581Z,24.80
2022-10-21T18:32:07.543Z,23.90
2022-10-21T18:33:31.357Z,25.17
2022-10-21T18:34:53.597Z,25.23
2022-10-21T18:36:17.922Z,25.90
2022-10-21T18:37:40.257Z,26.43
2022-10-21T18:39:03.442Z,22.03
2022-10-21T18:40:25.647Z,22.07
2022-10-21T18:41:47.782Z,24.70